sensor_id;sensor_type;location;lat;lon;timestamp;pressure;altitude;pressure_sealevel;temperature;humidity
58367;BME280;57745;42.524;12.052;2022-12-04T00:02:18;96084.63;;;16.39;57.16
58367;BME280;57745;42.524;12.052;2022-12-04T00:04:44;96092.19;;;16.30;57.30
58367;BME280;57745;42.524;12.052;2022-12-04T00:07:09;96084.06;;;16.35;57.58
58367;BME280;57745;42.524;12.052;2022-12-04T00:09:35;96082.38;;;16.38;57.11
58367;BME280;57745;42.524;12.052;2022-12-04T00:12:01;96085.09;;;16.38;57.36
58367;BME280;57745;42.524;12.052;2022-12-04T00:14:26;96091.50;;;16.35;57.30
58367;BME280;57745;42.524;12.052;2022-12-04T00:16:52;96085.00;;;16.32;57.59
58367;BME280;57745;42.524;12.052;2022-12-04T00:19:17;96094.53;;;16.37;57.25
58367;BME280;57745;42.524;12.052;2022-12-04T00:21:43;96101.91;;;16.31;57.51
58367;BME280;57745;42.524;12.052;2022-12-04T00:24:09;96115.50;;;16.40;57.22
58367;BME280;57745;42.524;12.052;2022-12-04T00:26:34;96114.91;;;16.36;57.18
58367;BME280;57745;42.524;12.052;2022-12-04T00:29:00;96112.66;;;16.34;57.33
58367;BME280;57745;42.524;12.052;2022-12-04T00:31:27;96125.50;;;16.28;57.29
58367;BME280;57745;42.524;12.052;2022-12-04T00:33:53;96122.94;;;16.25;57.48
58367;BME280;57745;42.524;12.052;2022-12-04T00:36:21;96134.25;;;16.17;57.53
58367;BME280;57745;42.524;12.052;2022-12-04T00:38:47;96133.13;;;16.24;57.35
58367;BME280;57745;42.524;12.052;2022-12-04T00:41:15;96126.88;;;15.94;57.02
58367;BME280;57745;42.524;12.052;2022-12-04T00:43:41;96133.94;;;16.01;58.14
58367;BME280;57745;42.524;12.052;2022-12-04T00:46:07;96136.78;;;16.06;57.84
58367;BME280;57745;42.524;12.052;2022-12-04T00:48:33;96134.72;;;16.16;57.70
58367;BME280;57745;42.524;12.052;2022-12-04T00:51:24;96138.41;;;16.28;57.32
58367;BME280;57745;42.524;12.052;2022-12-04T00:53:51;96143.50;;;16.20;57.40
58367;BME280;57745;42.524;12.052;2022-12-04T00:56:19;96142.66;;;16.29;57.33
58367;BME280;57745;42.524;12.052;2022-12-04T00:58:45;96143.13;;;16.27;57.31
58367;BME280;57745;42.524;12.052;2022-12-04T01:01:13;96151.44;;;16.18;57.69
58367;BME280;57745;42.524;12.052;2022-12-04T01:03:40;96151.22;;;16.22;57.45
58367;BME280;57745;42.524;12.052;2022-12-04T01:06:06;96140.56;;;16.09;57.75
58367;BME280;57745;42.524;12.052;2022-12-04T01:08:40;96150.84;;;16.14;57.60
58367;BME280;57745;42.524;12.052;2022-12-04T01:11:06;96152.19;;;16.19;57.25
58367;BME280;57745;42.524;12.052;2022-12-04T01:13:31;96149.94;;;16.17;57.20
58367;BME280;57745;42.524;12.052;2022-12-04T01:15:57;96155.19;;;16.21;57.20
58367;BME280;57745;42.524;12.052;2022-12-04T01:18:22;96154.63;;;16.16;56.86
58367;BME280;57745;42.524;12.052;2022-12-04T01:20:50;96147.81;;;16.12;57.41
58367;BME280;57745;42.524;12.052;2022-12-04T01:23:16;96158.78;;;16.12;57.32
58367;BME280;57745;42.524;12.052;2022-12-04T01:25:56;96151.16;;;16.16;57.10
58367;BME280;57745;42.524;12.052;2022-12-04T01:28:22;96154.06;;;16.12;57.20
58367;BME280;57745;42.524;12.052;2022-12-04T01:31:04;96162.47;;;16.24;56.70
58367;BME280;57745;42.524;12.052;2022-12-04T01:33:32;96160.97;;;16.23;56.97
58367;BME280;57745;42.524;12.052;2022-12-04T01:35:58;96167.66;;;16.22;56.75
58367;BME280;57745;42.524;12.052;2022-12-04T01:38:25;96160.97;;;16.23;56.88
58367;BME280;57745;42.524;12.052;2022-12-04T01:40:51;96161.25;;;16.25;56.60
58367;BME280;57745;42.524;12.052;2022-12-04T01:43:17;96162.00;;;16.25;56.71
58367;BME280;57745;42.524;12.052;2022-12-04T01:45:49;96161.63;;;16.17;56.99
58367;BME280;57745;42.524;12.052;2022-12-04T01:48:20;96168.31;;;16.16;57.12
58367;BME280;57745;42.524;12.052;2022-12-04T01:50:49;96165.38;;;16.20;56.47
58367;BME280;57745;42.524;12.052;2022-12-04T01:53:16;96177.84;;;16.21;56.55
58367;BME280;57745;42.524;12.052;2022-12-04T01:55:44;96176.22;;;16.14;56.96
58367;BME280;57745;42.524;12.052;2022-12-04T01:58:11;96174.09;;;16.19;56.89
58367;BME280;57745;42.524;12.052;2022-12-04T02:00:37;96173.13;;;16.22;56.44
58367;BME280;57745;42.524;12.052;2022-12-04T02:03:02;96176.16;;;16.24;56.88
58367;BME280;57745;42.524;12.052;2022-12-04T02:05:28;96172.84;;;16.20;57.04
58367;BME280;57745;42.524;12.052;2022-12-04T02:08:01;96177.56;;;16.19;56.79
58367;BME280;57745;42.524;12.052;2022-12-04T02:10:39;96185.97;;;16.15;56.99
58367;BME280;57745;42.524;12.052;2022-12-04T02:13:26;96190.13;;;16.26;56.86
58367;BME280;57745;42.524;12.052;2022-12-04T02:16:08;96191.44;;;16.15;56.91
58367;BME280;57745;42.524;12.052;2022-12-04T02:18:45;96191.06;;;16.23;56.85
58367;BME280;57745;42.524;12.052;2022-12-04T02:26:55;96195.09;;;16.12;57.19
58367;BME280;57745;42.524;12.052;2022-12-04T02:29:48;96198.13;;;16.14;56.95
58367;BME280;57745;42.524;12.052;2022-12-04T02:32:22;96195.69;;;16.16;57.04
58367;BME280;57745;42.524;12.052;2022-12-04T02:34:59;96191.59;;;16.12;57.07
58367;BME280;57745;42.524;12.052;2022-12-04T02:37:36;96188.97;;;16.17;56.96
58367;BME280;57745;42.524;12.052;2022-12-04T02:40:06;96192.94;;;16.16;57.20
58367;BME280;57745;42.524;12.052;2022-12-04T02:42:40;96192.34;;;16.12;57.20
58367;BME280;57745;42.524;12.052;2022-12-04T02:45:30;96196.31;;;16.11;57.21
58367;BME280;57745;42.524;12.052;2022-12-04T02:47:59;96194.72;;;16.20;56.91
58367;BME280;57745;42.524;12.052;2022-12-04T02:50:27;96193.94;;;16.04;57.54
58367;BME280;57745;42.524;12.052;2022-12-04T02:53:29;96186.03;;;16.06;57.43
58367;BME280;57745;42.524;12.052;2022-12-04T02:56:00;96195.47;;;16.05;57.22
58367;BME280;57745;42.524;12.052;2022-12-04T02:58:31;96192.06;;;16.10;57.04
58367;BME280;57745;42.524;12.052;2022-12-04T03:01:02;96196.16;;;16.15;56.82
58367;BME280;57745;42.524;12.052;2022-12-04T03:03:48;96188.47;;;16.04;57.24
58367;BME280;57745;42.524;12.052;2022-12-04T03:06:17;96195.72;;;16.07;57.10
58367;BME280;57745;42.524;12.052;2022-12-04T03:08:51;96197.53;;;16.10;57.06
58367;BME280;57745;42.524;12.052;2022-12-04T03:11:19;96196.56;;;15.99;57.49
58367;BME280;57745;42.524;12.052;2022-12-04T03:13:52;96209.69;;;16.09;57.05
58367;BME280;57745;42.524;12.052;2022-12-04T03:16:30;96201.88;;;16.02;57.41
58367;BME280;57745;42.524;12.052;2022-12-04T03:19:04;96206.81;;;15.89;57.71
58367;BME280;57745;42.524;12.052;2022-12-04T03:21:35;96200.75;;;15.85;58.08
58367;BME280;57745;42.524;12.052;2022-12-04T03:24:35;96198.31;;;15.87;58.22
58367;BME280;57745;42.524;12.052;2022-12-04T03:32:15;96203.56;;;15.76;58.54
58367;BME280;57745;42.524;12.052;2022-12-04T03:38:03;96214.63;;;15.58;59.61
58367;BME280;57745;42.524;12.052;2022-12-04T03:40:37;96210.19;;;15.84;58.67
58367;BME280;57745;42.524;12.052;2022-12-04T03:43:24;96212.88;;;15.93;58.35
58367;BME280;57745;42.524;12.052;2022-12-04T03:48:58;96208.72;;;15.98;58.21
58367;BME280;57745;42.524;12.052;2022-12-04T03:51:30;96215.31;;;15.91;58.23
58367;BME280;57745;42.524;12.052;2022-12-04T03:54:04;96227.78;;;15.92;58.29
58367;BME280;57745;42.524;12.052;2022-12-04T03:56:35;96241.44;;;15.92;58.26
58367;BME280;57745;42.524;12.052;2022-12-04T03:59:07;96228.31;;;15.82;58.71
58367;BME280;57745;42.524;12.052;2022-12-04T04:01:38;96233.00;;;15.81;59.02
58367;BME280;57745;42.524;12.052;2022-12-04T04:04:10;96237.81;;;15.86;58.68
58367;BME280;57745;42.524;12.052;2022-12-04T04:06:40;96244.63;;;15.91;58.38
58367;BME280;57745;42.524;12.052;2022-12-04T04:09:11;96246.69;;;15.81;58.73
58367;BME280;57745;42.524;12.052;2022-12-04T04:11:47;96243.88;;;15.90;58.38
58367;BME280;57745;42.524;12.052;2022-12-04T04:14:33;96242.66;;;15.91;58.56
58367;BME280;57745;42.524;12.052;2022-12-04T04:17:24;96252.69;;;15.94;58.43
58367;BME280;57745;42.524;12.052;2022-12-04T04:20:20;96255.13;;;15.92;58.66
58367;BME280;57745;42.524;12.052;2022-12-04T04:23:08;96258.16;;;15.94;58.68
58367;BME280;57745;42.524;12.052;2022-12-04T04:25:56;96265.00;;;15.90;58.64
58367;BME280;57745;42.524;12.052;2022-12-04T04:28:33;96285.22;;;15.83;58.98
58367;BME280;57745;42.524;12.052;2022-12-04T04:37:19;96281.25;;;15.93;58.45
58367;BME280;57745;42.524;12.052;2022-12-04T04:39:50;96297.06;;;15.89;58.84
58367;BME280;57745;42.524;12.052;2022-12-04T04:42:26;96304.09;;;15.81;58.81
58367;BME280;57745;42.524;12.052;2022-12-04T04:45:03;96304.38;;;15.83;58.79
58367;BME280;57745;42.524;12.052;2022-12-04T04:47:32;96303.38;;;15.71;59.57
58367;BME280;57745;42.524;12.052;2022-12-04T04:50:00;96307.41;;;15.85;58.94
58367;BME280;57745;42.524;12.052;2022-12-04T04:52:27;96296.72;;;15.96;58.41
58367;BME280;57745;42.524;12.052;2022-12-04T04:54:55;96303.41;;;15.95;58.65
58367;BME280;57745;42.524;12.052;2022-12-04T04:57:29;96318.31;;;15.94;58.83
58367;BME280;57745;42.524;12.052;2022-12-04T04:59:55;96320.56;;;15.96;58.49
58367;BME280;57745;42.524;12.052;2022-12-04T05:02:20;96312.41;;;15.87;58.87
58367;BME280;57745;42.524;12.052;2022-12-04T05:04:46;96325.78;;;15.85;59.13
58367;BME280;57745;42.524;12.052;2022-12-04T05:07:11;96330.47;;;15.93;58.61
58367;BME280;57745;42.524;12.052;2022-12-04T05:09:37;96331.50;;;15.96;58.60
58367;BME280;57745;42.524;12.052;2022-12-04T05:12:02;96328.41;;;15.79;58.91
58367;BME280;57745;42.524;12.052;2022-12-04T05:14:28;96338.13;;;15.80;59.05
58367;BME280;57745;42.524;12.052;2022-12-04T05:16:53;96338.69;;;15.93;58.54
58367;BME280;57745;42.524;12.052;2022-12-04T05:19:19;96332.63;;;15.89;58.90
58367;BME280;57745;42.524;12.052;2022-12-04T05:22:04;96351.91;;;15.95;58.77
58367;BME280;57745;42.524;12.052;2022-12-04T05:24:30;96349.09;;;15.71;59.74
58367;BME280;57745;42.524;12.052;2022-12-04T05:26:55;96360.31;;;15.73;59.64
58367;BME280;57745;42.524;12.052;2022-12-04T05:29:21;96356.06;;;15.72;59.46
58367;BME280;57745;42.524;12.052;2022-12-04T05:31:46;96355.16;;;15.75;59.52
58367;BME280;57745;42.524;12.052;2022-12-04T05:34:12;96368.97;;;15.80;59.13
58367;BME280;57745;42.524;12.052;2022-12-04T05:36:37;96358.94;;;15.77;59.42
58367;BME280;57745;42.524;12.052;2022-12-04T05:39:02;96369.09;;;15.86;59.04
58367;BME280;57745;42.524;12.052;2022-12-04T05:41:28;96368.06;;;15.74;59.55
58367;BME280;57745;42.524;12.052;2022-12-04T05:43:53;96371.66;;;15.90;58.74
58367;BME280;57745;42.524;12.052;2022-12-04T05:46:19;96375.31;;;15.87;58.97
58367;BME280;57745;42.524;12.052;2022-12-04T05:48:45;96379.09;;;15.89;58.74
58367;BME280;57745;42.524;12.052;2022-12-04T05:51:11;96387.91;;;15.93;58.82
58367;BME280;57745;42.524;12.052;2022-12-04T05:53:37;96384.28;;;15.87;58.95
58367;BME280;57745;42.524;12.052;2022-12-04T05:56:04;96380.19;;;15.82;59.06
58367;BME280;57745;42.524;12.052;2022-12-04T05:58:32;96386.56;;;15.89;58.95
58367;BME280;57745;42.524;12.052;2022-12-04T06:00:57;96388.19;;;15.95;58.64
58367;BME280;57745;42.524;12.052;2022-12-04T06:03:23;96386.13;;;15.81;59.06
58367;BME280;57745;42.524;12.052;2022-12-04T06:05:48;96390.66;;;15.84;58.91
58367;BME280;57745;42.524;12.052;2022-12-04T06:08:14;96385.84;;;15.79;59.34
58367;BME280;57745;42.524;12.052;2022-12-04T06:10:40;96385.34;;;15.90;58.78
58367;BME280;57745;42.524;12.052;2022-12-04T06:13:06;96396.72;;;15.88;58.79
58367;BME280;57745;42.524;12.052;2022-12-04T06:15:38;96399.78;;;15.90;58.83
58367;BME280;57745;42.524;12.052;2022-12-04T06:18:04;96398.72;;;15.88;58.92
58367;BME280;57745;42.524;12.052;2022-12-04T06:20:30;96403.72;;;15.89;58.91
58367;BME280;57745;42.524;12.052;2022-12-04T06:22:55;96408.13;;;15.87;58.74
58367;BME280;57745;42.524;12.052;2022-12-04T06:25:21;96409.69;;;15.78;59.15
58367;BME280;57745;42.524;12.052;2022-12-04T06:27:46;96403.50;;;15.69;59.30
58367;BME280;57745;42.524;12.052;2022-12-04T06:30:12;96407.53;;;15.82;59.10
58367;BME280;57745;42.524;12.052;2022-12-04T06:32:37;96409.41;;;15.67;59.70
58367;BME280;57745;42.524;12.052;2022-12-04T06:35:03;96417.16;;;15.69;59.68
58367;BME280;57745;42.524;12.052;2022-12-04T06:37:29;96425.00;;;15.85;58.76
58367;BME280;57745;42.524;12.052;2022-12-04T06:39:54;96426.28;;;15.66;59.54
58367;BME280;57745;42.524;12.052;2022-12-04T06:42:20;96439.31;;;15.71;59.43
58367;BME280;57745;42.524;12.052;2022-12-04T06:44:45;96434.00;;;15.76;59.20
58367;BME280;57745;42.524;12.052;2022-12-04T06:47:10;96436.13;;;15.82;59.06
58367;BME280;57745;42.524;12.052;2022-12-04T06:49:36;96431.84;;;15.90;58.70
58367;BME280;57745;42.524;12.052;2022-12-04T06:52:01;96437.00;;;15.88;58.72
58367;BME280;57745;42.524;12.052;2022-12-04T06:54:27;96438.06;;;15.90;58.84
58367;BME280;57745;42.524;12.052;2022-12-04T06:56:52;96431.22;;;15.95;58.50
58367;BME280;57745;42.524;12.052;2022-12-04T06:59:18;96437.16;;;15.84;58.81
58367;BME280;57745;42.524;12.052;2022-12-04T07:01:43;96436.88;;;15.82;59.07
58367;BME280;57745;42.524;12.052;2022-12-04T07:04:09;96431.22;;;15.86;58.74
58367;BME280;57745;42.524;12.052;2022-12-04T07:06:36;96440.78;;;15.90;58.84
58367;BME280;57745;42.524;12.052;2022-12-04T07:09:08;96440.84;;;15.72;59.21
58367;BME280;57745;42.524;12.052;2022-12-04T07:11:37;96439.94;;;15.66;59.70
58367;BME280;57745;42.524;12.052;2022-12-04T07:14:03;96445.97;;;15.88;58.90
58367;BME280;57745;42.524;12.052;2022-12-04T07:16:29;96449.03;;;15.81;59.04
58367;BME280;57745;42.524;12.052;2022-12-04T07:18:55;96449.75;;;15.91;58.66
58367;BME280;57745;42.524;12.052;2022-12-04T07:21:26;96454.78;;;15.83;58.77
58367;BME280;57745;42.524;12.052;2022-12-04T07:23:55;96463.34;;;15.67;59.72
58367;BME280;57745;42.524;12.052;2022-12-04T07:26:21;96458.16;;;15.78;59.01
58367;BME280;57745;42.524;12.052;2022-12-04T07:28:47;96460.56;;;15.76;58.99
58367;BME280;57745;42.524;12.052;2022-12-04T07:31:16;96469.38;;;15.80;59.05
58367;BME280;57745;42.524;12.052;2022-12-04T07:33:42;96472.13;;;15.71;59.39
58367;BME280;57745;42.524;12.052;2022-12-04T07:36:11;96479.38;;;15.83;58.89
58367;BME280;57745;42.524;12.052;2022-12-04T07:38:37;96485.78;;;15.80;59.27
58367;BME280;57745;42.524;12.052;2022-12-04T07:41:04;96493.66;;;15.87;59.04
58367;BME280;57745;42.524;12.052;2022-12-04T07:43:30;96499.75;;;15.91;58.58
58367;BME280;57745;42.524;12.052;2022-12-04T07:45:56;96500.50;;;15.82;59.14
58367;BME280;57745;42.524;12.052;2022-12-04T07:48:23;96506.78;;;15.65;60.02
58367;BME280;57745;42.524;12.052;2022-12-04T07:50:48;96520.28;;;15.68;59.31
58367;BME280;57745;42.524;12.052;2022-12-04T07:53:14;96516.50;;;15.66;59.81
58367;BME280;57745;42.524;12.052;2022-12-04T07:55:39;96514.34;;;15.79;59.36
58367;BME280;57745;42.524;12.052;2022-12-04T07:58:05;96520.13;;;15.72;59.35
58367;BME280;57745;42.524;12.052;2022-12-04T08:00:31;96521.81;;;15.69;59.35
58367;BME280;57745;42.524;12.052;2022-12-04T08:02:56;96527.44;;;15.66;59.84
58367;BME280;57745;42.524;12.052;2022-12-04T08:05:22;96519.84;;;15.61;59.91
58367;BME280;57745;42.524;12.052;2022-12-04T08:07:47;96531.69;;;15.58;59.91
58367;BME280;57745;42.524;12.052;2022-12-04T08:10:13;96529.84;;;15.64;59.75
58367;BME280;57745;42.524;12.052;2022-12-04T08:12:39;96535.31;;;15.64;59.72
58367;BME280;57745;42.524;12.052;2022-12-04T08:15:05;96532.16;;;15.56;60.15
58367;BME280;57745;42.524;12.052;2022-12-04T08:17:31;96531.06;;;15.54;60.19
58367;BME280;57745;42.524;12.052;2022-12-04T08:19:56;96538.34;;;15.48;60.49
58367;BME280;57745;42.524;12.052;2022-12-04T08:22:25;96545.81;;;15.65;59.85
58367;BME280;57745;42.524;12.052;2022-12-04T08:24:50;96540.94;;;15.60;60.21
58367;BME280;57745;42.524;12.052;2022-12-04T08:27:16;96536.41;;;15.66;59.92
58367;BME280;57745;42.524;12.052;2022-12-04T08:29:42;96551.13;;;15.69;60.05
58367;BME280;57745;42.524;12.052;2022-12-04T08:32:07;96557.94;;;15.82;59.52
58367;BME280;57745;42.524;12.052;2022-12-04T08:34:33;96550.81;;;15.67;60.27
58367;BME280;57745;42.524;12.052;2022-12-04T08:36:58;96559.78;;;15.58;60.58
58367;BME280;57745;42.524;12.052;2022-12-04T08:39:24;96557.34;;;15.60;60.41
58367;BME280;57745;42.524;12.052;2022-12-04T08:41:50;96565.09;;;15.62;60.49
58367;BME280;57745;42.524;12.052;2022-12-04T08:44:15;96573.59;;;15.64;60.60
58367;BME280;57745;42.524;12.052;2022-12-04T08:46:41;96581.97;;;15.78;59.85
58367;BME280;57745;42.524;12.052;2022-12-04T08:49:06;96568.91;;;15.64;60.70
58367;BME280;57745;42.524;12.052;2022-12-04T08:51:32;96578.31;;;15.72;60.04
58367;BME280;57745;42.524;12.052;2022-12-04T08:54:03;96578.91;;;15.76;60.13
58367;BME280;57745;42.524;12.052;2022-12-04T08:56:29;96584.84;;;15.75;60.18
58367;BME280;57745;42.524;12.052;2022-12-04T08:58:56;96578.94;;;15.67;60.47
58367;BME280;57745;42.524;12.052;2022-12-04T09:01:22;96577.25;;;15.70;60.44
58367;BME280;57745;42.524;12.052;2022-12-04T09:03:48;96589.69;;;15.71;60.34
58367;BME280;57745;42.524;12.052;2022-12-04T09:06:14;96589.69;;;15.71;60.42
58367;BME280;57745;42.524;12.052;2022-12-04T09:08:40;96595.63;;;15.69;60.63
58367;BME280;57745;42.524;12.052;2022-12-04T09:11:09;96602.59;;;15.61;61.02
58367;BME280;57745;42.524;12.052;2022-12-04T09:13:35;96595.78;;;15.57;61.28
58367;BME280;57745;42.524;12.052;2022-12-04T09:16:06;96605.63;;;15.45;62.00
58367;BME280;57745;42.524;12.052;2022-12-04T09:18:33;96595.72;;;15.48;61.92
58367;BME280;57745;42.524;12.052;2022-12-04T09:21:01;96601.81;;;15.42;62.13
58367;BME280;57745;42.524;12.052;2022-12-04T09:23:27;96607.28;;;15.42;62.32
58367;BME280;57745;42.524;12.052;2022-12-04T09:25:53;96601.19;;;15.48;62.11
58367;BME280;57745;42.524;12.052;2022-12-04T09:28:19;96608.50;;;15.51;61.70
58367;BME280;57745;42.524;12.052;2022-12-04T09:30:44;96614.84;;;15.48;62.24
58367;BME280;57745;42.524;12.052;2022-12-04T09:33:10;96619.44;;;15.51;62.32
58367;BME280;57745;42.524;12.052;2022-12-04T09:35:37;96614.28;;;15.53;62.07
58367;BME280;57745;42.524;12.052;2022-12-04T09:38:03;96631.13;;;15.51;62.15
58367;BME280;57745;42.524;12.052;2022-12-04T09:40:36;96623.06;;;15.38;62.61
58367;BME280;57745;42.524;12.052;2022-12-04T09:45:47;96638.69;;;15.47;62.63
58367;BME280;57745;42.524;12.052;2022-12-04T09:48:17;96633.75;;;15.64;61.81
58367;BME280;57745;42.524;12.052;2022-12-04T09:50:46;96649.69;;;15.56;62.19
58367;BME280;57745;42.524;12.052;2022-12-04T09:56:05;96640.06;;;15.42;62.93
58367;BME280;57745;42.524;12.052;2022-12-04T09:58:40;96641.28;;;15.51;62.16
58367;BME280;57745;42.524;12.052;2022-12-04T10:01:24;96639.22;;;15.55;62.03
58367;BME280;57745;42.524;12.052;2022-12-04T10:03:52;96648.63;;;15.72;61.52
58367;BME280;57745;42.524;12.052;2022-12-04T10:06:27;96640.44;;;15.63;61.92
58367;BME280;57745;42.524;12.052;2022-12-04T10:09:00;96648.63;;;15.63;62.08
58367;BME280;57745;42.524;12.052;2022-12-04T10:17:30;96635.28;;;15.65;62.00
58367;BME280;57745;42.524;12.052;2022-12-04T10:23:09;96635.28;;;15.74;61.69
58367;BME280;57745;42.524;12.052;2022-12-04T10:25:38;96633.41;;;15.53;62.42
58367;BME280;57745;42.524;12.052;2022-12-04T10:30:34;96636.16;;;15.62;62.33
58367;BME280;57745;42.524;12.052;2022-12-04T10:33:21;96633.28;;;15.74;61.94
58367;BME280;57745;42.524;12.052;2022-12-04T10:35:49;96638.31;;;15.67;62.17
58367;BME280;57745;42.524;12.052;2022-12-04T10:38:44;96642.72;;;15.73;62.15
58367;BME280;57745;42.524;12.052;2022-12-04T10:41:26;96648.94;;;15.65;62.28
58367;BME280;57745;42.524;12.052;2022-12-04T10:43:53;96649.09;;;15.61;62.42
58367;BME280;57745;42.524;12.052;2022-12-04T10:46:26;96637.09;;;15.77;61.86
58367;BME280;57745;42.524;12.052;2022-12-04T10:48:57;96645.91;;;15.63;62.27
58367;BME280;57745;42.524;12.052;2022-12-04T10:51:23;96642.25;;;15.66;62.22
58367;BME280;57745;42.524;12.052;2022-12-04T10:53:49;96639.81;;;15.59;62.73
58367;BME280;57745;42.524;12.052;2022-12-04T10:56:17;96634.66;;;15.61;62.58
58367;BME280;57745;42.524;12.052;2022-12-04T10:58:57;96631.00;;;15.73;62.14
58367;BME280;57745;42.524;12.052;2022-12-04T11:01:23;96630.25;;;15.63;62.29
58367;BME280;57745;42.524;12.052;2022-12-04T11:04:01;96635.81;;;15.51;63.12
58367;BME280;57745;42.524;12.052;2022-12-04T11:06:28;96646.19;;;15.56;63.12
58367;BME280;57745;42.524;12.052;2022-12-04T11:08:54;96647.09;;;15.62;63.12
58367;BME280;57745;42.524;12.052;2022-12-04T11:11:34;96644.69;;;15.64;62.84
58367;BME280;57745;42.524;12.052;2022-12-04T11:14:12;96644.06;;;15.60;62.70
58367;BME280;57745;42.524;12.052;2022-12-04T11:16:40;96640.59;;;15.68;62.48
58367;BME280;57745;42.524;12.052;2022-12-04T11:21:46;96640.44;;;15.63;62.37
58367;BME280;57745;42.524;12.052;2022-12-04T11:24:19;96632.09;;;15.66;62.58
58367;BME280;57745;42.524;12.052;2022-12-04T11:26:46;96637.72;;;15.81;61.85
58367;BME280;57745;42.524;12.052;2022-12-04T11:29:14;96639.53;;;15.75;62.22
58367;BME280;57745;42.524;12.052;2022-12-04T11:31:53;96643.03;;;15.75;62.17
58367;BME280;57745;42.524;12.052;2022-12-04T11:34:21;96634.38;;;15.68;62.68
58367;BME280;57745;42.524;12.052;2022-12-04T11:36:53;96636.47;;;15.73;62.43
58367;BME280;57745;42.524;12.052;2022-12-04T11:39:28;96628.44;;;15.69;62.73
58367;BME280;57745;42.524;12.052;2022-12-04T11:44:31;96636.78;;;15.66;63.22
58367;BME280;57745;42.524;12.052;2022-12-04T11:46:59;96627.53;;;15.63;63.10
58367;BME280;57745;42.524;12.052;2022-12-04T11:49:28;96618.56;;;15.72;62.80
58367;BME280;57745;42.524;12.052;2022-12-04T11:59:37;96636.66;;;15.69;62.64
58367;BME280;57745;42.524;12.052;2022-12-04T12:14:07;96627.06;;;15.74;62.75
58367;BME280;57745;42.524;12.052;2022-12-04T12:17:15;96632.66;;;15.52;63.65
58367;BME280;57745;42.524;12.052;2022-12-04T12:20:06;96634.00;;;15.48;63.97
58367;BME280;57745;42.524;12.052;2022-12-04T12:23:01;96651.78;;;15.43;64.03
58367;BME280;57745;42.524;12.052;2022-12-04T12:33:17;96652.16;;;15.23;64.40
58367;BME280;57745;42.524;12.052;2022-12-04T12:36:02;96646.75;;;15.41;63.97
58367;BME280;57745;42.524;12.052;2022-12-04T12:41:17;96655.28;;;15.53;63.65
58367;BME280;57745;42.524;12.052;2022-12-04T12:43:51;96661.09;;;15.64;63.18
58367;BME280;57745;42.524;12.052;2022-12-04T12:46:27;96650.94;;;15.24;64.67
58367;BME280;57745;42.524;12.052;2022-12-04T12:49:03;96649.84;;;15.13;65.09
58367;BME280;57745;42.524;12.052;2022-12-04T12:51:34;96647.91;;;15.22;64.55
58367;BME280;57745;42.524;12.052;2022-12-04T12:54:30;96657.41;;;15.08;65.15
58367;BME280;57745;42.524;12.052;2022-12-04T12:57:23;96675.44;;;15.46;63.58
58367;BME280;57745;42.524;12.052;2022-12-04T13:00:01;96662.97;;;15.36;63.95
58367;BME280;57745;42.524;12.052;2022-12-04T13:02:32;96663.56;;;14.82;65.49
58367;BME280;57745;42.524;12.052;2022-12-04T13:05:07;96674.97;;;15.29;64.00
58367;BME280;57745;42.524;12.052;2022-12-04T13:07:47;96682.88;;;15.36;63.89
58367;BME280;57745;42.524;12.052;2022-12-04T13:10:22;96686.00;;;15.17;64.20
58367;BME280;57745;42.524;12.052;2022-12-04T13:12:55;96680.84;;;15.19;63.97
58367;BME280;57745;42.524;12.052;2022-12-04T13:15:28;96671.63;;;15.34;63.64
58367;BME280;57745;42.524;12.052;2022-12-04T13:17:58;96684.78;;;15.18;63.75
58367;BME280;57745;42.524;12.052;2022-12-04T13:20:30;96683.53;;;15.09;64.01
58367;BME280;57745;42.524;12.052;2022-12-04T13:29:29;96681.41;;;15.54;62.41
58367;BME280;57745;42.524;12.052;2022-12-04T13:32:01;96680.16;;;15.45;62.69
58367;BME280;57745;42.524;12.052;2022-12-04T13:37:42;96683.09;;;15.60;62.15
58367;BME280;57745;42.524;12.052;2022-12-04T13:43:26;96677.81;;;15.66;61.88
58367;BME280;57745;42.524;12.052;2022-12-04T13:45:55;96681.41;;;15.54;62.37
58367;BME280;57745;42.524;12.052;2022-12-04T13:48:40;96687.81;;;15.60;62.34
58367;BME280;57745;42.524;12.052;2022-12-04T13:53:37;96698.69;;;15.51;62.70
58367;BME280;57745;42.524;12.052;2022-12-04T13:56:06;96695.88;;;15.63;62.21
58367;BME280;57745;42.524;12.052;2022-12-04T13:58:34;96709.53;;;15.72;62.17
58367;BME280;57745;42.524;12.052;2022-12-04T14:01:22;96705.28;;;15.71;61.89
58367;BME280;57745;42.524;12.052;2022-12-04T14:03:50;96707.44;;;15.67;61.96
58367;BME280;57745;42.524;12.052;2022-12-04T14:06:23;96718.81;;;15.66;62.13
58367;BME280;57745;42.524;12.052;2022-12-04T14:08:55;96704.84;;;15.73;62.06
58367;BME280;57745;42.524;12.052;2022-12-04T14:11:22;96720.47;;;15.63;62.39
58367;BME280;57745;42.524;12.052;2022-12-04T14:13:51;96716.41;;;15.68;62.08
58367;BME280;57745;42.524;12.052;2022-12-04T14:16:24;96715.31;;;15.74;61.62
58367;BME280;57745;42.524;12.052;2022-12-04T14:18:54;96724.94;;;15.88;61.28
58367;BME280;57745;42.524;12.052;2022-12-04T14:21:21;96724.59;;;15.77;61.83
58367;BME280;57745;42.524;12.052;2022-12-04T14:23:47;96720.66;;;15.78;61.89
58367;BME280;57745;42.524;12.052;2022-12-04T14:26:28;96720.03;;;15.83;61.47
58367;BME280;57745;42.524;12.052;2022-12-04T14:29:06;96730.97;;;15.65;62.26
58367;BME280;57745;42.524;12.052;2022-12-04T14:31:44;96724.59;;;15.68;61.92
58367;BME280;57745;42.524;12.052;2022-12-04T14:34:27;96725.53;;;15.92;61.22
58367;BME280;57745;42.524;12.052;2022-12-04T14:36:55;96740.72;;;15.84;61.04
58367;BME280;57745;42.524;12.052;2022-12-04T14:39:36;96737.97;;;15.75;61.64